Apalachin, New York
Current Conditions -  °F | °C
As of 3:53 PM on Friday 19 Dec 2014 (Local Time) from KBGM Reporting Station
Overcast Overcast  
Wind Chill: 13°   Ceiling: 900
Heat Index: 23°   Visibility: 10mi
Dew Point: 20°   Wind: 9mph
Humidity: 88%   Direction: 310°NW
Pressure: 30.07"   Gusts: NA
Location:  42.07°N, 76.15°W
Report Text: KBGM 192053Z 31008KT 10SM OVC009 M05/M07 A3007 RMK AO2 SLP207 T10501067 53009
Loading
Personal Weather Stations






























Interactive Weather Map New forecast layout! Learn more

10-Day Weather Forecast

Advertisements
Track Severe Weather on mobile